createdAt,value
2023-01-31T00:00:10.395Z,98878.44
2023-01-31T00:01:18.234Z,98860.72
2023-01-31T00:02:20.087Z,98881.78
2023-01-31T00:03:22.004Z,98874.75
2023-01-31T00:04:23.811Z,98869.00
2023-01-31T00:05:26.651Z,98873.47
2023-01-31T00:06:31.592Z,98871.41
2023-01-31T00:07:33.457Z,98873.31
2023-01-31T00:08:35.325Z,98869.78
2023-01-31T00:09:37.358Z,98875.13
2023-01-31T00:10:39.349Z,98867.13
2023-01-31T00:11:41.315Z,98859.88
2023-01-31T00:12:43.144Z,98870.00
2023-01-31T00:13:45.980Z,98866.50
2023-01-31T00:14:47.924Z,98862.81
2023-01-31T00:15:49.761Z,98873.47
2023-01-31T00:16:52.284Z,98858.75
2023-01-31T00:17:55.358Z,98869.16
2023-01-31T00:18:57.172Z,98861.06
2023-01-31T00:19:58.947Z,98872.66
2023-01-31T00:21:27.920Z,98871.44
2023-01-31T00:22:29.715Z,98881.78
2023-01-31T00:23:31.564Z,98883.78
2023-01-31T00:24:33.347Z,98879.66
2023-01-31T00:25:35.233Z,98882.50
2023-01-31T00:26:37.881Z,98873.69
2023-01-31T00:27:39.844Z,98875.72
2023-01-31T00:28:42.450Z,98880.03
2023-01-31T00:29:44.249Z,98878.19
2023-01-31T00:30:46.007Z,98870.19
2023-01-31T00:31:47.911Z,98884.38
2023-01-31T00:32:49.924Z,98887.03
2023-01-31T00:33:53.545Z,98870.28
2023-01-31T00:34:55.416Z,98880.03
2023-01-31T00:35:57.293Z,98887.22
2023-01-31T00:36:59.143Z,98895.22
2023-01-31T00:38:00.997Z,98889.06
2023-01-31T00:39:05.302Z,98889.25
2023-01-31T00:40:08.536Z,98889.88
2023-01-31T00:41:10.917Z,98885.56
2023-01-31T00:42:12.685Z,98878.31
2023-01-31T00:43:16.243Z,98887.41
2023-01-31T00:44:18.073Z,98888.44
2023-01-31T00:45:20.339Z,98870.47
2023-01-31T00:46:22.479Z,98884.91
2023-01-31T00:47:24.603Z,98878.69
2023-01-31T00:48:26.956Z,98880.97
2023-01-31T00:49:28.784Z,98892.09
2023-01-31T00:50:30.656Z,98885.31
2023-01-31T00:51:32.572Z,98886.09
2023-01-31T00:52:35.264Z,98880.88
2023-01-31T00:53:38.326Z,98877.41
2023-01-31T00:54:40.398Z,98895.97
2023-01-31T00:55:42.225Z,98888.50
2023-01-31T00:56:44.844Z,98891.38
2023-01-31T00:57:46.798Z,98889.78
2023-01-31T00:58:48.874Z,98888.13
2023-01-31T00:59:50.740Z,98879.44
2023-01-31T01:00:52.532Z,98885.69
2023-01-31T01:01:55.509Z,98888.34
2023-01-31T01:02:58.133Z,98888.34
2023-01-31T01:03:59.923Z,98898.19
2023-01-31T01:05:01.743Z,98887.72
2023-01-31T01:06:04.089Z,98893.03
2023-01-31T01:07:05.903Z,98880.72
2023-01-31T01:08:08.429Z,98893.69
2023-01-31T01:09:10.364Z,98864.44
2023-01-31T01:10:13.123Z,98904.75
2023-01-31T01:11:19.339Z,98906.78
2023-01-31T01:12:21.202Z,98904.75
2023-01-31T01:13:23.247Z,98902.25
2023-01-31T01:14:25.217Z,98906.56
2023-01-31T01:15:27.237Z,98892.69
2023-01-31T01:16:36.605Z,98906.78
2023-01-31T01:17:38.805Z,98910.09
2023-01-31T01:18:41.256Z,98910.25
2023-01-31T01:19:43.073Z,98916.44
2023-01-31T01:20:47.332Z,98900.22
2023-01-31T01:21:49.112Z,98922.97
2023-01-31T01:22:51.153Z,98915.31
2023-01-31T01:23:56.008Z,98927.50
2023-01-31T01:24:57.796Z,98924.81
2023-01-31T01:25:59.781Z,98932.84
2023-01-31T01:27:05.151Z,98919.47
2023-01-31T01:28:07.009Z,98917.81
2023-01-31T01:29:10.345Z,98916.81
2023-01-31T01:30:12.570Z,98908.97
2023-01-31T01:31:18.879Z,98894.88
2023-01-31T01:32:20.832Z,98921.31
2023-01-31T01:33:22.667Z,98911.38
2023-01-31T01:34:24.479Z,98922.53
2023-01-31T01:35:26.313Z,98922.53
2023-01-31T01:36:29.239Z,98918.00
2023-01-31T01:37:31.378Z,98918.84
2023-01-31T01:38:36.984Z,98919.22
2023-01-31T01:39:39.215Z,98906.03
2023-01-31T01:40:41.408Z,98918.84
2023-01-31T01:41:43.424Z,98913.50
2023-01-31T01:42:45.308Z,98926.00
2023-01-31T01:43:56.097Z,98918.84
2023-01-31T01:45:03.376Z,98922.31
2023-01-31T01:46:05.391Z,98927.66
2023-01-31T01:47:18.016Z,98915.91
2023-01-31T01:48:19.860Z,98923.97
2023-01-31T01:49:31.266Z,98927.00
2023-01-31T01:50:35.343Z,98922.16
2023-01-31T01:51:39.042Z,98919.66
2023-01-31T01:53:11.035Z,98927.13
2023-01-31T01:54:18.646Z,98925.09
2023-01-31T01:55:44.353Z,98908.69
2023-01-31T01:56:49.575Z,98885.97
2023-01-31T01:58:01.124Z,98911.00
2023-01-31T01:59:09.138Z,98904.22
2023-01-31T02:00:22.633Z,98923.81
2023-01-31T02:01:29.085Z,98929.97
2023-01-31T02:02:30.984Z,98911.75
2023-01-31T02:03:33.355Z,98928.50
2023-01-31T02:04:39.389Z,98926.22
2023-01-31T02:05:48.175Z,98923.34
2023-01-31T02:06:52.366Z,98915.06
2023-01-31T02:07:55.753Z,98935.88
2023-01-31T02:08:57.992Z,98927.88
2023-01-31T02:10:16.177Z,98928.69
2023-01-31T02:11:27.415Z,98918.00
2023-01-31T02:12:30.408Z,98916.97
2023-01-31T02:13:32.745Z,98921.69
2023-01-31T02:14:34.617Z,98926.22
2023-01-31T02:15:36.547Z,98919.38
2023-01-31T02:16:39.615Z,98922.91
2023-01-31T02:17:41.841Z,98907.88
2023-01-31T02:18:45.625Z,98915.22
2023-01-31T02:19:47.379Z,98899.03
2023-01-31T02:21:12.689Z,98918.19
2023-01-31T02:22:40.267Z,98905.22
2023-01-31T02:23:45.180Z,98906.94
2023-01-31T02:25:05.648Z,98913.13
2023-01-31T02:26:23.453Z,98913.50
2023-01-31T02:28:09.318Z,98915.97
2023-01-31T02:29:48.339Z,98906.41
2023-01-31T02:31:07.751Z,98906.41
2023-01-31T02:32:36.717Z,98903.72
2023-01-31T02:34:13.396Z,98905.75
2023-01-31T02:35:24.741Z,98898.88
2023-01-31T02:36:40.719Z,98899.41
2023-01-31T02:38:24.316Z,98893.53
2023-01-31T02:39:57.057Z,98910.47
2023-01-31T02:41:14.826Z,98902.19
2023-01-31T02:42:43.488Z,98898.88
2023-01-31T02:44:06.980Z,98905.88
2023-01-31T02:45:28.245Z,98896.84
2023-01-31T02:47:04.326Z,98911.84
2023-01-31T02:48:16.159Z,98908.53
2023-01-31T02:49:36.788Z,98912.38
2023-01-31T02:51:15.270Z,98910.19
2023-01-31T02:52:33.117Z,98905.56
2023-01-31T02:54:05.958Z,98898.22
2023-01-31T02:55:37.010Z,98905.22
2023-01-31T02:56:43.616Z,98901.53
2023-01-31T02:57:49.356Z,98891.19
2023-01-31T02:58:59.565Z,98896.91
2023-01-31T03:00:02.019Z,98893.59
2023-01-31T03:01:05.682Z,98895.81
2023-01-31T03:02:08.259Z,98893.97
2023-01-31T03:03:25.904Z,98885.31
2023-01-31T03:04:32.960Z,98892.16
2023-01-31T03:05:35.019Z,98883.66
2023-01-31T03:06:36.916Z,98900.97
2023-01-31T03:07:42.872Z,98898.50
2023-01-31T03:08:45.050Z,98901.97
2023-01-31T03:10:02.949Z,98890.28
2023-01-31T03:11:08.464Z,98890.28
2023-01-31T03:12:36.414Z,98887.88
2023-01-31T03:14:03.235Z,98878.88
2023-01-31T03:15:19.972Z,98887.72
2023-01-31T03:17:13.810Z,98868.47
2023-01-31T03:18:23.247Z,98888.81
2023-01-31T03:19:36.493Z,98875.84
2023-01-31T03:21:13.043Z,98887.81
2023-01-31T03:22:24.212Z,98875.84
2023-01-31T03:23:31.113Z,98879.25
2023-01-31T03:24:34.610Z,98877.97
2023-01-31T03:25:38.513Z,98886.59
2023-01-31T03:26:43.880Z,98889.09
2023-01-31T03:27:52.847Z,98896.66
2023-01-31T03:28:58.723Z,98876.94
2023-01-31T03:30:08.825Z,98889.66
2023-01-31T03:31:21.742Z,98877.03
2023-01-31T03:32:29.587Z,98892.97
2023-01-31T03:33:40.404Z,98890.28
2023-01-31T03:34:42.560Z,98877.03
2023-01-31T03:35:51.618Z,98896.00
2023-01-31T03:36:59.934Z,98891.50
2023-01-31T03:38:30.724Z,98892.59
2023-01-31T03:39:53.942Z,98901.22
2023-01-31T03:41:08.318Z,98891.56
2023-01-31T03:42:51.573Z,98893.53
2023-01-31T03:44:01.705Z,98880.53
2023-01-31T03:45:23.254Z,98885.41
2023-01-31T03:46:37.713Z,98886.06
2023-01-31T03:47:45.795Z,98871.53
2023-01-31T03:48:52.177Z,98885.78
2023-01-31T03:49:57.425Z,98888.84
2023-01-31T03:51:04.720Z,98896.00
2023-01-31T03:52:09.140Z,98884.69
2023-01-31T03:53:26.635Z,98871.28
2023-01-31T03:54:34.912Z,98886.34
2023-01-31T03:55:43.627Z,98882.38
2023-01-31T03:56:56.782Z,98884.31
2023-01-31T03:57:59.907Z,98883.28
2023-01-31T03:59:10.304Z,98875.03
2023-01-31T04:00:15.660Z,98879.97
2023-01-31T04:01:25.617Z,98869.50
2023-01-31T04:02:37.075Z,98878.16
2023-01-31T04:03:41.038Z,98870.16
2023-01-31T04:04:52.620Z,98868.50
2023-01-31T04:05:54.811Z,98878.97
2023-01-31T04:06:57.690Z,98873.38
2023-01-31T04:08:00.470Z,98887.34
2023-01-31T04:09:05.336Z,98888.00
2023-01-31T04:10:13.455Z,98895.56
2023-01-31T04:11:16.236Z,98892.69
2023-01-31T04:12:18.126Z,98877.97
2023-01-31T04:13:19.959Z,98893.53
2023-01-31T04:14:21.764Z,98884.88
2023-01-31T04:15:23.691Z,98879.53
2023-01-31T04:16:25.634Z,98905.38
2023-01-31T04:17:27.517Z,98893.63
2023-01-31T04:18:29.323Z,98909.91
2023-01-31T04:19:31.121Z,98898.41
2023-01-31T04:20:33.257Z,98878.16
2023-01-31T04:21:35.126Z,98905.38
2023-01-31T04:22:37.033Z,98888.56
2023-01-31T04:23:38.878Z,98893.91
2023-01-31T04:24:40.768Z,98894.72
2023-01-31T04:25:42.566Z,98896.38
2023-01-31T04:26:44.407Z,98888.09
2023-01-31T04:27:46.353Z,98888.09
2023-01-31T04:28:48.149Z,98893.06
2023-01-31T04:29:49.936Z,98895.72
2023-01-31T04:30:56.264Z,98867.84
2023-01-31T04:31:58.136Z,98893.69
2023-01-31T04:33:00.039Z,98888.56
2023-01-31T04:34:01.855Z,98890.38
2023-01-31T04:35:04.603Z,98887.72
2023-01-31T04:36:06.916Z,98883.22
2023-01-31T04:37:08.906Z,98892.03
2023-01-31T04:38:11.203Z,98882.38
2023-01-31T04:39:13.816Z,98895.09
2023-01-31T04:40:15.737Z,98898.22
2023-01-31T04:41:17.711Z,98893.91
2023-01-31T04:42:19.527Z,98892.16
2023-01-31T04:43:21.321Z,98900.25
2023-01-31T04:44:23.156Z,98895.09
2023-01-31T04:45:25.033Z,98893.06
2023-01-31T04:46:26.853Z,98901.28
2023-01-31T04:47:28.690Z,98908.44
2023-01-31T04:48:30.689Z,98899.41
2023-01-31T04:49:33.009Z,98891.66
2023-01-31T04:50:35.199Z,98902.28
2023-01-31T04:51:37.015Z,98903.09
2023-01-31T04:52:38.846Z,98905.75
2023-01-31T04:53:43.146Z,98892.16
2023-01-31T04:54:44.992Z,98895.09
2023-01-31T04:55:46.923Z,98887.44
2023-01-31T04:56:48.785Z,98895.09
2023-01-31T04:57:50.739Z,98898.78
2023-01-31T04:58:52.533Z,98887.81
2023-01-31T04:59:54.295Z,98904.09
2023-01-31T05:00:56.535Z,98893.44
2023-01-31T05:01:58.495Z,98904.94
2023-01-31T05:03:01.347Z,98907.41
2023-01-31T05:04:03.312Z,98864.44
2023-01-31T05:05:09.020Z,98888.94
2023-01-31T05:06:10.802Z,98897.59
2023-01-31T05:07:12.593Z,98880.72
2023-01-31T05:08:14.443Z,98888.09
2023-01-31T05:09:16.726Z,98885.97
2023-01-31T05:10:18.798Z,98894.28
2023-01-31T05:11:21.272Z,98879.44
2023-01-31T05:12:23.053Z,98876.50
2023-01-31T05:13:25.425Z,98885.44
2023-01-31T05:14:28.134Z,98890.75
2023-01-31T05:15:30.056Z,98889.75
2023-01-31T05:16:32.557Z,98888.94
2023-01-31T05:17:34.942Z,98874.94
2023-01-31T05:18:37.425Z,98893.44
2023-01-31T05:19:39.315Z,98890.38
2023-01-31T05:20:41.185Z,98880.72
2023-01-31T05:21:55.445Z,98866.47
2023-01-31T05:22:58.422Z,98882.22
2023-01-31T05:24:00.227Z,98894.72
2023-01-31T05:25:02.079Z,98883.22
2023-01-31T05:26:04.809Z,98883.41
2023-01-31T05:27:06.953Z,98872.19
2023-01-31T05:28:08.998Z,98886.91
2023-01-31T05:29:11.135Z,98886.06
2023-01-31T05:30:13.423Z,98885.06
2023-01-31T05:31:15.512Z,98881.75
2023-01-31T05:32:19.452Z,98889.75
2023-01-31T05:33:21.384Z,98878.06
2023-01-31T05:34:25.373Z,98889.75
2023-01-31T05:35:27.305Z,98891.25
2023-01-31T05:36:29.139Z,98891.41
2023-01-31T05:37:31.521Z,98891.41
2023-01-31T05:38:33.565Z,98901.06
2023-01-31T05:39:35.939Z,98895.09
2023-01-31T05:40:37.750Z,98897.75
2023-01-31T05:41:39.538Z,98889.75
2023-01-31T05:42:41.762Z,98888.47
2023-01-31T05:43:43.532Z,98882.75
2023-01-31T05:44:45.357Z,98883.13
2023-01-31T05:45:48.619Z,98883.59
2023-01-31T05:46:50.828Z,98883.59
2023-01-31T05:47:53.000Z,98882.75
2023-01-31T05:48:54.833Z,98875.50
2023-01-31T05:49:56.599Z,98881.09
2023-01-31T05:50:58.370Z,98876.59
2023-01-31T05:52:01.154Z,98886.44
2023-01-31T05:53:06.294Z,98883.78
2023-01-31T05:54:10.506Z,98884.63
2023-01-31T05:55:12.318Z,98878.25
2023-01-31T05:56:14.592Z,98885.44
2023-01-31T05:57:16.382Z,98874.75
2023-01-31T05:58:18.184Z,98880.09
2023-01-31T05:59:19.962Z,98861.50
2023-01-31T06:00:22.973Z,98877.41
2023-01-31T06:01:26.698Z,98882.13
2023-01-31T06:02:28.630Z,98876.59
2023-01-31T06:03:31.039Z,98873.09
2023-01-31T06:04:33.497Z,98881.09
2023-01-31T06:05:35.344Z,98881.09
2023-01-31T06:06:37.218Z,98883.97
2023-01-31T06:07:39.656Z,98879.44
2023-01-31T06:08:42.200Z,98883.59
2023-01-31T06:09:44.039Z,98893.44
2023-01-31T06:10:45.812Z,98886.06
2023-01-31T06:11:47.591Z,98887.72
2023-01-31T06:12:49.490Z,98876.88
2023-01-31T06:13:51.263Z,98882.00
2023-01-31T06:14:53.267Z,98864.44
2023-01-31T06:15:55.079Z,98884.94
2023-01-31T06:16:56.942Z,98880.25
2023-01-31T06:17:59.932Z,98888.72
2023-01-31T06:19:02.056Z,98882.22
2023-01-31T06:20:05.027Z,98879.16
2023-01-31T06:21:06.870Z,98872.44
2023-01-31T06:22:08.672Z,98866.72
2023-01-31T06:23:10.423Z,98873.34
2023-01-31T06:24:12.223Z,98869.44
2023-01-31T06:25:14.106Z,98879.59
2023-01-31T06:26:15.919Z,98873.88
2023-01-31T06:27:17.767Z,98884.00
2023-01-31T06:28:20.246Z,98878.31
2023-01-31T06:29:22.041Z,98878.75
2023-01-31T06:30:23.924Z,98875.25
2023-01-31T06:31:25.865Z,98880.84
2023-01-31T06:32:27.758Z,98867.50
2023-01-31T06:33:43.482Z,98874.59
2023-01-31T06:34:48.452Z,98883.28
2023-01-31T06:35:50.246Z,98872.16
2023-01-31T06:36:52.239Z,98884.31
2023-01-31T06:37:55.913Z,98880.69
2023-01-31T06:38:58.123Z,98878.41
2023-01-31T06:39:59.907Z,98877.25
2023-01-31T06:41:01.966Z,98857.44
2023-01-31T06:42:04.255Z,98875.69
2023-01-31T06:43:06.136Z,98871.53
2023-01-31T06:44:08.062Z,98875.09
2023-01-31T06:45:10.377Z,98880.91
2023-01-31T06:46:12.314Z,98884.03
2023-01-31T06:47:14.789Z,98881.53
2023-01-31T06:48:16.944Z,98885.28
2023-01-31T06:49:18.780Z,98888.59
2023-01-31T06:50:20.732Z,98873.38
2023-01-31T06:51:22.594Z,98875.66
2023-01-31T06:52:24.493Z,98870.13
2023-01-31T06:53:26.266Z,98876.13
2023-01-31T06:54:28.039Z,98875.09
2023-01-31T06:55:30.379Z,98873.88
2023-01-31T06:56:32.651Z,98880.06
2023-01-31T06:57:34.533Z,98867.72
2023-01-31T06:58:36.423Z,98877.00
2023-01-31T06:59:38.289Z,98874.31
2023-01-31T07:00:40.054Z,98877.63
2023-01-31T07:01:41.873Z,98847.88
2023-01-31T07:02:43.665Z,98867.72
2023-01-31T07:03:45.939Z,98866.53
2023-01-31T07:04:47.866Z,98856.00
2023-01-31T07:05:49.766Z,98878.91
2023-01-31T07:06:51.775Z,98870.88
2023-01-31T07:07:53.829Z,98871.50
2023-01-31T07:08:56.147Z,98880.38
2023-01-31T07:09:58.104Z,98870.47
2023-01-31T07:11:01.927Z,98875.19
2023-01-31T07:12:04.016Z,98884.50
2023-01-31T07:13:05.880Z,98885.34
2023-01-31T07:14:07.667Z,98885.34
2023-01-31T07:15:11.352Z,98880.94
2023-01-31T07:16:13.591Z,98894.16
2023-01-31T07:17:15.603Z,98893.34
2023-01-31T07:18:17.361Z,98897.47
2023-01-31T07:19:19.404Z,98889.41
2023-01-31T07:20:21.249Z,98903.84
2023-01-31T07:21:24.661Z,98901.16
2023-01-31T07:22:26.488Z,98897.47
2023-01-31T07:23:28.260Z,98895.63
2023-01-31T07:24:30.328Z,98890.09
2023-01-31T07:25:34.072Z,98890.09
2023-01-31T07:26:36.009Z,98889.06
2023-01-31T07:27:37.879Z,98877.31
2023-01-31T07:28:39.901Z,98889.06
2023-01-31T07:29:41.934Z,98896.06
2023-01-31T07:30:44.007Z,98882.69
2023-01-31T07:31:45.943Z,98893.38
2023-01-31T07:32:47.791Z,98895.03
2023-01-31T07:33:49.988Z,98904.09
2023-01-31T07:34:51.820Z,98885.38
2023-01-31T07:35:53.638Z,98897.72
2023-01-31T07:36:55.468Z,98888.81
2023-01-31T07:37:57.248Z,98905.75
2023-01-31T07:39:01.113Z,98899.50
2023-01-31T07:40:02.940Z,98892.34
2023-01-31T07:41:05.602Z,98912.97
2023-01-31T07:42:07.563Z,98913.75
2023-01-31T07:43:09.499Z,98903.06
2023-01-31T07:44:11.340Z,98887.56
2023-01-31T07:45:33.608Z,98896.59
2023-01-31T07:46:35.619Z,98916.75
2023-01-31T07:47:37.396Z,98912.41
2023-01-31T07:48:39.648Z,98924.09
2023-01-31T07:49:41.475Z,98912.31
2023-01-31T07:50:43.245Z,98910.09
2023-01-31T07:51:44.991Z,98916.44
2023-01-31T07:52:49.184Z,98925.13
2023-01-31T07:53:51.083Z,98925.97
2023-01-31T07:54:52.909Z,98918.97
2023-01-31T07:55:55.091Z,98918.13
2023-01-31T07:56:56.933Z,98911.09
2023-01-31T07:57:58.709Z,98927.00
2023-01-31T07:59:00.538Z,98923.47
2023-01-31T08:00:02.763Z,98912.78
2023-01-31T08:01:37.308Z,98928.66
2023-01-31T08:02:57.565Z,98926.03
2023-01-31T08:04:10.713Z,98910.56
2023-01-31T08:05:20.669Z,98924.00
2023-01-31T08:06:22.705Z,98928.91
2023-01-31T08:07:27.081Z,98932.81
2023-01-31T08:08:29.598Z,98934.63
2023-01-31T08:09:32.145Z,98927.97
2023-01-31T08:10:34.407Z,98930.47
2023-01-31T08:11:36.204Z,98940.16
2023-01-31T08:12:37.979Z,98936.69
2023-01-31T08:13:40.104Z,98935.84
2023-01-31T08:14:42.376Z,98922.19
2023-01-31T08:15:44.159Z,98940.16
2023-01-31T08:16:45.977Z,98940.16
2023-01-31T08:17:47.787Z,98920.53
2023-01-31T08:18:49.725Z,98947.38
2023-01-31T08:19:51.500Z,98947.38
2023-01-31T08:20:53.412Z,98941.19
2023-01-31T08:21:55.192Z,98946.53
2023-01-31T08:22:59.944Z,98929.19
2023-01-31T08:24:01.748Z,98939.88
2023-01-31T08:25:03.615Z,98941.19
2023-01-31T08:26:09.853Z,98938.50
2023-01-31T08:27:11.728Z,98941.84
2023-01-31T08:28:13.642Z,98943.69
2023-01-31T08:29:15.620Z,98942.03
2023-01-31T08:30:17.633Z,98942.84
2023-01-31T08:31:25.225Z,98947.38
2023-01-31T08:32:27.245Z,98938.50
2023-01-31T08:33:29.147Z,98956.22
2023-01-31T08:34:31.473Z,98954.38
2023-01-31T08:35:33.439Z,98958.88
2023-01-31T08:36:36.249Z,98949.22
2023-01-31T08:37:38.048Z,98957.22
2023-01-31T08:38:40.159Z,98958.06
2023-01-31T08:39:43.501Z,98958.25
2023-01-31T08:40:45.502Z,98967.94
2023-01-31T08:41:48.002Z,98964.44
2023-01-31T08:42:57.055Z,98957.59
2023-01-31T08:44:00.691Z,98962.41
2023-01-31T08:45:04.419Z,98973.94
2023-01-31T08:46:07.060Z,98963.97
2023-01-31T08:47:08.833Z,98984.66
2023-01-31T08:48:10.919Z,98975.78
2023-01-31T08:49:12.956Z,98974.94
2023-01-31T08:50:25.964Z,98981.97
2023-01-31T08:51:29.384Z,98970.25
2023-01-31T08:52:35.450Z,98975.59
2023-01-31T08:53:39.159Z,98969.22
2023-01-31T08:54:41.335Z,98974.94
2023-01-31T08:55:43.187Z,98976.41
2023-01-31T08:56:44.951Z,98960.66
2023-01-31T08:57:58.925Z,98970.44
2023-01-31T08:59:01.829Z,98977.91
2023-01-31T09:00:04.154Z,98979.72
2023-01-31T09:01:08.785Z,98978.28
2023-01-31T09:02:11.981Z,98979.94
2023-01-31T09:03:17.088Z,98976.63
2023-01-31T09:04:18.932Z,98962.75
2023-01-31T09:05:21.169Z,98982.41
2023-01-31T09:06:25.235Z,98971.28
2023-01-31T09:07:27.124Z,98974.38
2023-01-31T09:08:30.219Z,98956.31
2023-01-31T09:09:32.015Z,98979.94
2023-01-31T09:10:33.807Z,98963.44
2023-01-31T09:11:36.137Z,98969.22
2023-01-31T09:12:38.198Z,98974.59
2023-01-31T09:13:39.957Z,98971.28
2023-01-31T09:14:41.865Z,98962.22
2023-01-31T09:15:43.683Z,98967.13
2023-01-31T09:16:46.771Z,98967.94
2023-01-31T09:17:48.979Z,98976.41
2023-01-31T09:18:51.675Z,98972.94
2023-01-31T09:19:53.475Z,98964.91
2023-01-31T09:20:55.567Z,98966.28
2023-01-31T09:21:57.378Z,98966.56
2023-01-31T09:22:59.163Z,98963.03
2023-01-31T09:24:04.201Z,98969.22
2023-01-31T09:25:07.015Z,98970.88
2023-01-31T09:26:09.155Z,98964.69
2023-01-31T09:27:11.049Z,98964.59
2023-01-31T09:28:12.864Z,98966.34
2023-01-31T09:29:17.800Z,98962.03
2023-01-31T09:30:20.816Z,98966.34
2023-01-31T09:31:22.812Z,98924.09
2023-01-31T09:32:24.863Z,98953.53
2023-01-31T09:33:26.633Z,98967.19
2023-01-31T09:34:28.663Z,98961.84
2023-01-31T09:35:32.042Z,98945.22
2023-01-31T09:36:34.413Z,98968.00
2023-01-31T09:37:36.642Z,98976.88
2023-01-31T09:38:39.233Z,98962.47
2023-01-31T09:39:41.093Z,98958.16
2023-01-31T09:40:43.015Z,98961.63
2023-01-31T09:41:55.501Z,98965.16
2023-01-31T09:42:58.802Z,98964.13
2023-01-31T09:44:11.476Z,98965.97
2023-01-31T09:45:20.187Z,98961.47
2023-01-31T09:46:27.134Z,98947.84
2023-01-31T09:47:31.247Z,98960.44
2023-01-31T09:48:36.968Z,98963.91
2023-01-31T09:49:52.025Z,98942.53
2023-01-31T09:50:56.181Z,98945.78
2023-01-31T09:52:03.907Z,98948.72
2023-01-31T09:53:06.397Z,98957.56
2023-01-31T09:54:19.579Z,98944.78
2023-01-31T09:55:47.738Z,98938.03
2023-01-31T09:57:01.032Z,98947.94
2023-01-31T09:58:33.323Z,98940.72
2023-01-31T09:59:48.605Z,98955.56
2023-01-31T10:01:14.664Z,98961.94
2023-01-31T10:02:35.435Z,98955.56
2023-01-31T10:03:43.370Z,98961.94
2023-01-31T10:05:07.738Z,98963.59
2023-01-31T10:06:29.280Z,98961.09
2023-01-31T10:07:43.967Z,98959.28
2023-01-31T10:09:13.116Z,98947.31
2023-01-31T10:10:18.019Z,98958.25
2023-01-31T10:11:31.793Z,98966.03
2023-01-31T10:12:57.886Z,98960.09
2023-01-31T10:14:33.205Z,98958.69
2023-01-31T10:15:57.470Z,98951.88
2023-01-31T10:17:02.219Z,98954.56
2023-01-31T10:18:24.472Z,98935.34
2023-01-31T10:19:33.120Z,98946.66
2023-01-31T10:20:43.245Z,98938.78
2023-01-31T10:21:53.012Z,98956.34
2023-01-31T10:23:04.389Z,98954.69
2023-01-31T10:24:31.597Z,98957.16
2023-01-31T10:25:56.242Z,98952.69
2023-01-31T10:27:08.025Z,98945.91
2023-01-31T10:28:15.508Z,98942.59
2023-01-31T10:29:35.199Z,98946.28
2023-01-31T10:30:48.460Z,98948.97
2023-01-31T10:31:59.051Z,98938.00
2023-01-31T10:33:19.361Z,98936.78
2023-01-31T10:34:23.981Z,98939.91
2023-01-31T10:35:35.974Z,98921.56
2023-01-31T10:36:49.175Z,98929.78
2023-01-31T10:37:55.793Z,98922.38
2023-01-31T10:39:17.643Z,98917.88
2023-01-31T10:40:25.101Z,98911.66
2023-01-31T10:41:51.667Z,98905.94
2023-01-31T10:43:01.100Z,98913.16
2023-01-31T10:44:11.240Z,98907.16
2023-01-31T10:45:31.944Z,98912.53
2023-01-31T10:46:33.949Z,98908.81
2023-01-31T10:47:47.405Z,98901.56
2023-01-31T10:48:49.435Z,98915.19
2023-01-31T10:49:51.628Z,98916.59
2023-01-31T10:51:12.096Z,98917.03
2023-01-31T10:52:28.762Z,98913.34
2023-01-31T10:53:42.621Z,98909.22
2023-01-31T10:55:01.246Z,98899.13
2023-01-31T10:56:10.898Z,98904.50
2023-01-31T10:57:12.908Z,98908.19
2023-01-31T10:58:18.899Z,98904.25
2023-01-31T10:59:33.907Z,98895.19
2023-01-31T11:00:35.962Z,98891.50
2023-01-31T11:01:37.855Z,98905.28
2023-01-31T11:02:39.750Z,98902.59
2023-01-31T11:03:48.889Z,98887.69
2023-01-31T11:04:53.914Z,98899.06
2023-01-31T11:05:58.065Z,98900.94
2023-01-31T11:07:01.442Z,98900.94
2023-01-31T11:08:29.659Z,98896.41
2023-01-31T11:09:35.328Z,98896.00
2023-01-31T11:10:51.556Z,98889.63
2023-01-31T11:12:01.734Z,98885.13
2023-01-31T11:13:05.460Z,98884.50
2023-01-31T11:14:18.384Z,98895.19
2023-01-31T11:15:23.373Z,98879.53
2023-01-31T11:16:28.249Z,98875.00
2023-01-31T11:17:33.324Z,98881.19
2023-01-31T11:18:49.799Z,98885.69
2023-01-31T11:19:54.448Z,98891.91
2023-01-31T11:20:57.140Z,98890.25
2023-01-31T11:21:59.448Z,98888.59
2023-01-31T11:23:03.147Z,98887.31
2023-01-31T11:24:14.271Z,98895.97
2023-01-31T11:25:21.555Z,98887.75
2023-01-31T11:26:31.405Z,98885.06
2023-01-31T11:27:42.127Z,98895.59
2023-01-31T11:28:52.391Z,98895.59
2023-01-31T11:29:59.914Z,98904.44
2023-01-31T11:31:05.361Z,98898.28
2023-01-31T11:32:35.375Z,98896.63
2023-01-31T11:33:47.573Z,98900.56
2023-01-31T11:35:05.956Z,98904.88
2023-01-31T11:36:13.608Z,98904.88
2023-01-31T11:37:18.123Z,98908.56
2023-01-31T11:38:23.458Z,98910.00
2023-01-31T11:39:31.867Z,98907.31
2023-01-31T11:40:36.672Z,98912.84
2023-01-31T11:41:41.452Z,98914.50
2023-01-31T11:43:06.842Z,98917.63
2023-01-31T11:44:17.762Z,98911.41
2023-01-31T11:45:23.227Z,98918.66
2023-01-31T11:46:25.053Z,98916.16
2023-01-31T11:47:49.189Z,98930.78
2023-01-31T11:48:51.109Z,98919.28
2023-01-31T11:49:52.987Z,98919.47
2023-01-31T11:51:01.041Z,98927.06
2023-01-31T11:52:14.052Z,98924.19
2023-01-31T11:53:20.928Z,98922.34
2023-01-31T11:54:27.275Z,98922.34
2023-01-31T11:55:37.169Z,98926.69
2023-01-31T11:56:39.154Z,98914.94
2023-01-31T11:57:41.675Z,98909.09
2023-01-31T11:58:46.195Z,98927.06
2023-01-31T11:59:51.970Z,98928.72
2023-01-31T12:00:58.488Z,98912.66
2023-01-31T12:02:01.507Z,98915.34
2023-01-31T12:03:09.091Z,98920.69
2023-01-31T12:04:18.611Z,98904.00
2023-01-31T12:05:20.861Z,98906.09
2023-01-31T12:06:37.441Z,98904.44
2023-01-31T12:07:50.486Z,98906.94
2023-01-31T12:08:57.572Z,98911.25
2023-01-31T12:09:59.406Z,98909.78
2023-01-31T12:11:22.881Z,98911.66
2023-01-31T12:12:34.414Z,98907.94
2023-01-31T12:13:48.207Z,98902.84
2023-01-31T12:14:50.060Z,98904.25
2023-01-31T12:16:06.113Z,98906.94
2023-01-31T12:17:15.660Z,98913.72
2023-01-31T12:18:27.711Z,98889.41
2023-01-31T12:19:48.844Z,98903.47
2023-01-31T12:21:19.151Z,98888.44
2023-01-31T12:22:34.115Z,98899.56
2023-01-31T12:23:59.231Z,98888.69
2023-01-31T12:25:18.757Z,98897.72
2023-01-31T12:26:34.686Z,98903.06
2023-01-31T12:28:01.844Z,98908.81
2023-01-31T12:29:44.959Z,98899.81
2023-01-31T12:31:18.874Z,98896.56
2023-01-31T12:32:42.397Z,98893.25
2023-01-31T12:34:06.615Z,98877.09
2023-01-31T12:35:24.431Z,98894.03
2023-01-31T12:36:35.373Z,98893.19
2023-01-31T12:37:56.620Z,98899.78
2023-01-31T12:38:58.640Z,98851.19
2023-01-31T12:40:24.713Z,98900.16
2023-01-31T12:41:56.125Z,98894.66
2023-01-31T12:43:03.951Z,98883.09
2023-01-31T12:44:31.200Z,98883.94
2023-01-31T12:45:47.725Z,98859.78
2023-01-31T12:47:20.376Z,98871.78
2023-01-31T12:48:31.813Z,98874.28
2023-01-31T12:49:43.930Z,98876.31
2023-01-31T12:50:55.485Z,98879.38
2023-01-31T12:52:40.385Z,98871.16
2023-01-31T12:54:05.349Z,98880.66
2023-01-31T12:55:21.580Z,98877.97
2023-01-31T12:56:32.209Z,98877.13
2023-01-31T12:57:48.988Z,98866.97
2023-01-31T12:59:15.362Z,98877.53
2023-01-31T13:00:32.436Z,98878.38
2023-01-31T13:01:58.489Z,98880.03
2023-01-31T13:03:39.110Z,98876.94
2023-01-31T13:05:02.115Z,98879.22
2023-01-31T13:06:15.273Z,98885.78
2023-01-31T13:07:25.775Z,98886.19